PWSweather.com
Personal Weather Stations
Station Observations
KMICHEBO10
Cordwood Point, Lake Huron, Cheboygan, MI 49721

Cordwood Point, Lake HuronCheboygan, MI 49721

Lat: 45.663372, Lon: -84.3327789

Elevation: 584

Station Type: Davis Vantage Pro2 Wireless

https://www.lakehuronweather.org

High Low Average
Temperature 73.2°F22.9°C 65.2°F18.4°C 68.7°F20.4°C
Dew Point 66.8°F19.3°C 59.5°F15.3°C 63.4°F17.4°C
Winds 3.5 mph 5.6 kmh Calm Calm 1.0 mph E1.6 kmh E
Wind Gusts 9.2 mph14.8 kmh -- 2.0 mph3.2 kmh
Humidity 97% 72% 84%
Pressure 29.86 in1011.2 mb 29.74 in1007.1 mb -
Precipitation 0.08 in2.0 mm - -
Hour Temp Dew Point Humidity Winds Wind Gusts Pressure Precip Precip Rate Daily Precip Total
12:00 AM 65.2°F18.4°C 61.9°F16.6°C 89% Calm Calm -- 29.86 in1011.2 mb - 0.00 in0.0 mm 0.00 in0.0 mm
12:10 AM 65.3°F18.5°C 61.7°F16.5°C 88% Calm Calm -- 29.86 in1011.2 mb - 0.00 in0.0 mm 0.00 in0.0 mm
12:20 AM 65.3°F18.5°C 61.6°F16.4°C 88% Calm Calm -- 29.86 in1011.2 mb - 0.00 in0.0 mm 0.00 in0.0 mm
12:30 AM 65.3°F18.5°C 61.3°F16.3°C 87% Calm Calm -- 29.86 in1011.2 mb - 0.00 in0.0 mm 0.00 in0.0 mm
12:40 AM 65.2°F18.4°C 60.9°F16.1°C 86% Calm Calm -- 29.86 in1011.2 mb - 0.00 in0.0 mm 0.00 in0.0 mm
12:50 AM 65.2°F18.4°C 60.9°F16.1°C 86% Calm Calm -- 29.86 in1011.2 mb - 0.00 in0.0 mm 0.00 in0.0 mm
01:00 AM 65.2°F18.4°C 60.9°F16.1°C 86% Calm Calm -- 29.86 in1011.2 mb - 0.00 in0.0 mm 0.00 in0.0 mm
01:10 AM 65.5°F18.6°C 60.9°F16.1°C 85% Calm Calm -- 29.86 in1011.2 mb - 0.00 in0.0 mm 0.00 in0.0 mm
01:20 AM 65.8°F18.8°C 60.9°F16.1°C 84% Calm Calm 2.3 mph3.7 kmh 29.86 in1011.2 mb - 0.00 in0.0 mm 0.00 in0.0 mm
01:30 AM 66.1°F18.9°C 60.8°F16.0°C 83% Calm Calm 1.2 mph1.9 kmh 29.85 in1010.8 mb - 0.00 in0.0 mm 0.00 in0.0 mm
01:40 AM 66.3°F19.1°C 60.6°F15.9°C 82% Calm Calm -- 29.85 in1010.8 mb - 0.00 in0.0 mm 0.00 in0.0 mm
01:50 AM 66.5°F19.2°C 60.5°F15.8°C 81% Calm Calm -- 29.85 in1010.8 mb - 0.00 in0.0 mm 0.00 in0.0 mm
02:00 AM 66.8°F19.3°C 60.4°F15.8°C 80% Calm Calm -- 29.85 in1010.8 mb - 0.00 in0.0 mm 0.00 in0.0 mm
02:10 AM 66.9°F19.4°C 60.2°F15.7°C 79% Calm Calm -- 29.84 in1010.5 mb - 0.00 in0.0 mm 0.00 in0.0 mm
02:20 AM 66.9°F19.4°C 60.2°F15.7°C 79% Calm Calm -- 29.84 in1010.5 mb - 0.00 in0.0 mm 0.00 in0.0 mm
02:30 AM 66.8°F19.3°C 60.1°F15.6°C 79% Calm Calm -- 29.85 in1010.8 mb - 0.00 in0.0 mm 0.00 in0.0 mm
02:40 AM 66.9°F19.4°C 60.2°F15.7°C 79% Calm Calm -- 29.84 in1010.5 mb - 0.00 in0.0 mm 0.00 in0.0 mm
02:50 AM 66.9°F19.4°C 60.1°F15.6°C 79% Calm Calm -- 29.84 in1010.5 mb - 0.00 in0.0 mm 0.00 in0.0 mm
03:00 AM 66.9°F19.4°C 60.1°F15.6°C 79% Calm Calm 2.3 mph3.7 kmh 29.84 in1010.5 mb - 0.00 in0.0 mm 0.00 in0.0 mm
03:10 AM 67.0°F19.4°C 60.6°F15.9°C 80% Calm Calm -- 29.84 in1010.5 mb - 0.00 in0.0 mm 0.00 in0.0 mm
03:20 AM 66.9°F19.4°C 60.5°F15.8°C 80% Calm Calm -- 29.84 in1010.5 mb - 0.00 in0.0 mm 0.00 in0.0 mm
03:30 AM 66.9°F19.4°C 60.5°F15.8°C 80% Calm Calm -- 29.84 in1010.5 mb - 0.00 in0.0 mm 0.00 in0.0 mm
03:40 AM 66.8°F19.3°C 60.4°F15.8°C 80% Calm Calm -- 29.84 in1010.5 mb - 0.00 in0.0 mm 0.00 in0.0 mm
03:50 AM 66.6°F19.2°C 60.2°F15.7°C 80% Calm Calm -- 29.84 in1010.5 mb - 0.00 in0.0 mm 0.00 in0.0 mm
04:00 AM 66.5°F19.2°C 60.5°F15.8°C 81% Calm Calm -- 29.84 in1010.5 mb - 0.00 in0.0 mm 0.00 in0.0 mm
04:10 AM 66.6°F19.2°C 60.6°F15.9°C 81% Calm Calm -- 29.84 in1010.5 mb - 0.00 in0.0 mm 0.00 in0.0 mm
04:20 AM 66.6°F19.2°C 60.6°F15.9°C 81% Calm Calm -- 29.84 in1010.5 mb - 0.00 in0.0 mm 0.00 in0.0 mm
04:30 AM 66.6°F19.2°C 60.6°F15.9°C 81% Calm Calm -- 29.84 in1010.5 mb - 0.00 in0.0 mm 0.00 in0.0 mm
04:40 AM 66.6°F19.2°C 60.2°F15.7°C 80% Calm Calm -- 29.84 in1010.5 mb - 0.00 in0.0 mm 0.00 in0.0 mm
04:50 AM 66.8°F19.3°C 60.1°F15.6°C 79% Calm Calm -- 29.84 in1010.5 mb - 0.00 in0.0 mm 0.00 in0.0 mm
05:00 AM 66.9°F19.4°C 60.2°F15.7°C 79% Calm Calm -- 29.83 in1010.2 mb - 0.00 in0.0 mm 0.00 in0.0 mm
05:10 AM 66.8°F19.3°C 60.1°F15.6°C 79% Calm Calm -- 29.84 in1010.5 mb - 0.00 in0.0 mm 0.00 in0.0 mm
05:20 AM 66.7°F19.3°C 60.0°F15.6°C 79% Calm Calm -- 29.83 in1010.2 mb - 0.00 in0.0 mm 0.00 in0.0 mm
05:30 AM 66.6°F19.2°C 59.9°F15.5°C 79% Calm Calm -- 29.82 in1009.8 mb - 0.00 in0.0 mm 0.00 in0.0 mm
05:40 AM 66.3°F19.1°C 59.9°F15.5°C 80% Calm Calm -- 29.82 in1009.8 mb - 0.00 in0.0 mm 0.00 in0.0 mm
05:50 AM 66.1°F18.9°C 59.7°F15.4°C 80% Calm Calm -- 29.82 in1009.8 mb - 0.00 in0.0 mm 0.00 in0.0 mm
06:00 AM 65.9°F18.8°C 59.6°F15.3°C 80% Calm Calm -- 29.82 in1009.8 mb - 0.00 in0.0 mm 0.00 in0.0 mm
06:10 AM 65.6°F18.7°C 59.7°F15.4°C 81% Calm Calm -- 29.82 in1009.8 mb - 0.00 in0.0 mm 0.00 in0.0 mm
06:20 AM 65.5°F18.6°C 59.5°F15.3°C 81% Calm Calm -- 29.82 in1009.8 mb - 0.00 in0.0 mm 0.00 in0.0 mm
06:30 AM 65.5°F18.6°C 59.5°F15.3°C 81% Calm Calm -- 29.82 in1009.8 mb - 0.00 in0.0 mm 0.00 in0.0 mm
06:40 AM 65.5°F18.6°C 59.5°F15.3°C 81% Calm Calm -- 29.83 in1010.2 mb - 0.00 in0.0 mm 0.00 in0.0 mm
06:50 AM 65.5°F18.6°C 59.5°F15.3°C 81% Calm Calm 1.2 mph1.9 kmh 29.83 in1010.2 mb - 0.00 in0.0 mm 0.00 in0.0 mm
07:00 AM 65.6°F18.7°C 59.6°F15.3°C 81% Calm Calm -- 29.82 in1009.8 mb - 0.00 in0.0 mm 0.00 in0.0 mm
07:10 AM 65.6°F18.7°C 59.6°F15.3°C 81% Calm Calm 3.5 mph5.6 kmh 29.82 in1009.8 mb - 0.00 in0.0 mm 0.00 in0.0 mm
07:20 AM 66.0°F18.9°C 59.6°F15.3°C 80% Calm Calm -- 29.82 in1009.8 mb - 0.00 in0.0 mm 0.00 in0.0 mm
07:30 AM 66.3°F19.1°C 59.9°F15.5°C 80% Calm Calm -- 29.82 in1009.8 mb - 0.00 in0.0 mm 0.00 in0.0 mm
07:40 AM 66.1°F18.9°C 60.1°F15.6°C 81% Calm Calm -- 29.82 in1009.8 mb - 0.00 in0.0 mm 0.00 in0.0 mm
07:50 AM 66.1°F18.9°C 60.1°F15.6°C 81% Calm Calm -- 29.81 in1009.5 mb - 0.00 in0.0 mm 0.00 in0.0 mm
08:00 AM 66.5°F19.2°C 60.5°F15.8°C 81% Calm Calm -- 29.81 in1009.5 mb - 0.00 in0.0 mm 0.00 in0.0 mm
08:10 AM 67.2°F19.6°C 60.8°F16.0°C 80% Calm Calm -- 29.81 in1009.5 mb - 0.00 in0.0 mm 0.00 in0.0 mm
08:20 AM 67.9°F19.9°C 61.2°F16.2°C 79% Calm Calm 2.3 mph3.7 kmh 29.81 in1009.5 mb - 0.00 in0.0 mm 0.00 in0.0 mm
08:30 AM 68.5°F20.3°C 61.7°F16.5°C 79% Calm Calm 1.2 mph1.9 kmh 29.81 in1009.5 mb - 0.00 in0.0 mm 0.00 in0.0 mm
08:40 AM 69.0°F20.6°C 61.8°F16.6°C 78% 1.2 mph E1.9 kmh E 2.3 mph3.7 kmh 29.81 in1009.5 mb - 0.00 in0.0 mm 0.00 in0.0 mm
08:50 AM 69.6°F20.9°C 62.4°F16.9°C 78% Calm Calm 1.2 mph1.9 kmh 29.82 in1009.8 mb - 0.00 in0.0 mm 0.00 in0.0 mm
09:00 AM 70.3°F21.3°C 62.7°F17.1°C 77% Calm Calm -- 29.81 in1009.5 mb - 0.00 in0.0 mm 0.00 in0.0 mm
09:10 AM 70.9°F21.6°C 62.9°F17.2°C 76% 1.2 mph SE1.9 kmh SE 1.2 mph1.9 kmh 29.82 in1009.8 mb - 0.00 in0.0 mm 0.00 in0.0 mm
09:20 AM 71.6°F22.0°C 62.9°F17.2°C 74% 1.2 mph ESE1.9 kmh ESE 2.3 mph3.7 kmh 29.82 in1009.8 mb - 0.00 in0.0 mm 0.00 in0.0 mm
09:30 AM 72.2°F22.3°C 63.0°F17.2°C 73% 1.2 mph ENE1.9 kmh ENE 2.3 mph3.7 kmh 29.82 in1009.8 mb - 0.00 in0.0 mm 0.00 in0.0 mm
09:40 AM 72.7°F22.6°C 63.1°F17.3°C 72% 1.2 mph NNE1.9 kmh NNE 1.2 mph1.9 kmh 29.82 in1009.8 mb - 0.00 in0.0 mm 0.00 in0.0 mm
09:50 AM 72.8°F22.7°C 64.8°F18.2°C 76% 1.2 mph NE1.9 kmh NE 2.3 mph3.7 kmh 29.81 in1009.5 mb - 0.00 in0.0 mm 0.00 in0.0 mm
10:00 AM 71.9°F22.2°C 64.7°F18.2°C 78% 1.2 mph ENE1.9 kmh ENE 3.5 mph5.6 kmh 29.82 in1009.8 mb - 0.00 in0.0 mm 0.00 in0.0 mm
10:10 AM 72.1°F22.3°C 64.5°F18.1°C 77% 1.2 mph ENE1.9 kmh ENE 2.3 mph3.7 kmh 29.81 in1009.5 mb - 0.00 in0.0 mm 0.00 in0.0 mm
10:20 AM 72.5°F22.5°C 64.9°F18.3°C 77% 1.2 mph ENE1.9 kmh ENE 3.5 mph5.6 kmh 29.81 in1009.5 mb - 0.00 in0.0 mm 0.00 in0.0 mm
10:30 AM 72.3°F22.4°C 65.1°F18.4°C 78% 1.2 mph E1.9 kmh E 2.3 mph3.7 kmh 29.81 in1009.5 mb - 0.00 in0.0 mm 0.00 in0.0 mm
10:40 AM 72.0°F22.2°C 65.1°F18.4°C 79% 1.2 mph ESE1.9 kmh ESE 2.3 mph3.7 kmh 29.81 in1009.5 mb - 0.00 in0.0 mm 0.00 in0.0 mm
10:50 AM 72.3°F22.4°C 66.1°F18.9°C 81% 1.2 mph E1.9 kmh E 3.5 mph5.6 kmh 29.81 in1009.5 mb - 0.00 in0.0 mm 0.00 in0.0 mm
11:00 AM 72.7°F22.6°C 66.2°F19.0°C 80% 1.2 mph E1.9 kmh E 3.5 mph5.6 kmh 29.81 in1009.5 mb - 0.00 in0.0 mm 0.00 in0.0 mm
11:10 AM 72.9°F22.7°C 66.7°F19.3°C 81% 1.2 mph NE1.9 kmh NE 2.3 mph3.7 kmh 29.80 in1009.1 mb - 0.00 in0.0 mm 0.00 in0.0 mm
11:20 AM 72.0°F22.2°C 66.6°F19.2°C 83% 1.2 mph E1.9 kmh E 2.3 mph3.7 kmh 29.81 in1009.5 mb - 0.00 in0.0 mm 0.00 in0.0 mm
11:30 AM 71.6°F22.0°C 66.5°F19.2°C 84% 2.3 mph E3.7 kmh E 3.5 mph5.6 kmh 29.81 in1009.5 mb - 0.00 in0.0 mm 0.00 in0.0 mm
11:40 AM 72.3°F22.4°C 66.8°F19.3°C 83% 2.3 mph E3.7 kmh E 5.8 mph9.3 kmh 29.81 in1009.5 mb - 0.00 in0.0 mm 0.00 in0.0 mm
11:50 AM 71.8°F22.1°C 66.3°F19.1°C 83% 2.3 mph E3.7 kmh E 3.5 mph5.6 kmh 29.81 in1009.5 mb - 0.00 in0.0 mm 0.00 in0.0 mm
12:00 PM 71.8°F22.1°C 66.4°F19.1°C 83% 2.3 mph NE3.7 kmh NE 4.6 mph7.4 kmh 29.81 in1009.5 mb - 0.00 in0.0 mm 0.00 in0.0 mm
12:10 PM 73.0°F22.8°C 66.8°F19.3°C 81% 3.5 mph ENE5.6 kmh ENE 4.6 mph7.4 kmh 29.80 in1009.1 mb - 0.00 in0.0 mm 0.00 in0.0 mm
12:20 PM 73.2°F22.9°C 66.7°F19.3°C 80% 3.5 mph NE5.6 kmh NE 4.6 mph7.4 kmh 29.80 in1009.1 mb - 0.00 in0.0 mm 0.00 in0.0 mm
12:30 PM 72.5°F22.5°C 66.0°F18.9°C 80% 3.5 mph ENE5.6 kmh ENE 4.6 mph7.4 kmh 29.80 in1009.1 mb - 0.00 in0.0 mm 0.00 in0.0 mm
12:40 PM 71.3°F21.8°C 65.5°F18.6°C 82% 2.3 mph E3.7 kmh E 5.8 mph9.3 kmh 29.79 in1008.8 mb - 0.00 in0.0 mm 0.00 in0.0 mm
12:50 PM 72.3°F22.4°C 66.1°F18.9°C 81% 1.2 mph E1.9 kmh E 3.5 mph5.6 kmh 29.79 in1008.8 mb - 0.00 in0.0 mm 0.00 in0.0 mm
01:00 PM 72.1°F22.3°C 65.9°F18.8°C 81% 2.3 mph ENE3.7 kmh ENE 3.5 mph5.6 kmh 29.79 in1008.8 mb - 0.00 in0.0 mm 0.00 in0.0 mm
01:10 PM 71.4°F21.9°C 65.6°F18.7°C 82% 2.3 mph ESE3.7 kmh ESE 9.2 mph14.8 kmh 29.78 in1008.5 mb - 0.00 in0.0 mm 0.00 in0.0 mm
01:20 PM 71.5°F21.9°C 66.1°F18.9°C 83% 2.3 mph NE3.7 kmh NE 8.1 mph13.0 kmh 29.77 in1008.1 mb - 0.00 in0.0 mm 0.00 in0.0 mm
01:30 PM 72.0°F22.2°C 66.2°F19.0°C 82% 2.3 mph NE3.7 kmh NE 4.6 mph7.4 kmh 29.77 in1008.1 mb - 0.00 in0.0 mm 0.00 in0.0 mm
01:40 PM 71.1°F21.7°C 65.3°F18.5°C 82% 1.2 mph NE1.9 kmh NE 2.3 mph3.7 kmh 29.77 in1008.1 mb - 0.00 in0.0 mm 0.00 in0.0 mm
01:50 PM 70.3°F21.3°C 64.9°F18.3°C 83% 2.3 mph ENE3.7 kmh ENE 4.6 mph7.4 kmh 29.77 in1008.1 mb - 0.00 in0.0 mm 0.00 in0.0 mm
02:00 PM 69.3°F20.7°C 64.5°F18.1°C 85% 2.3 mph E3.7 kmh E 5.8 mph9.3 kmh 29.77 in1008.1 mb - 0.00 in0.0 mm 0.00 in0.0 mm
02:10 PM 68.7°F20.4°C 64.3°F17.9°C 86% 2.3 mph E3.7 kmh E 3.5 mph5.6 kmh 29.77 in1008.1 mb - 0.00 in0.0 mm 0.00 in0.0 mm
02:20 PM 68.5°F20.3°C 64.1°F17.8°C 86% 2.3 mph ENE3.7 kmh ENE 3.5 mph5.6 kmh 29.77 in1008.1 mb - 0.00 in0.0 mm 0.00 in0.0 mm
02:30 PM 68.3°F20.2°C 63.9°F17.7°C 86% 2.3 mph ESE3.7 kmh ESE 4.6 mph7.4 kmh 29.77 in1008.1 mb - 0.00 in0.0 mm 0.00 in0.0 mm
02:40 PM 68.2°F20.1°C 64.2°F17.9°C 87% 1.2 mph ENE1.9 kmh ENE 2.3 mph3.7 kmh 29.77 in1008.1 mb - 0.00 in0.0 mm 0.00 in0.0 mm
02:50 PM 68.5°F20.3°C 64.8°F18.2°C 88% 1.2 mph E1.9 kmh E 2.3 mph3.7 kmh 29.77 in1008.1 mb - 0.00 in0.0 mm 0.00 in0.0 mm
03:00 PM 69.2°F20.7°C 65.2°F18.4°C 87% Calm Calm -- 29.77 in1008.1 mb - 0.00 in0.0 mm 0.00 in0.0 mm
03:10 PM 69.2°F20.7°C 65.2°F18.4°C 87% 1.2 mph N1.9 kmh N 2.3 mph3.7 kmh 29.77 in1008.1 mb - 0.00 in0.0 mm 0.00 in0.0 mm
03:20 PM 69.1°F20.6°C 65.4°F18.6°C 88% 1.2 mph E1.9 kmh E 4.6 mph7.4 kmh 29.77 in1008.1 mb - 0.00 in0.0 mm 0.00 in0.0 mm
03:30 PM 69.5°F20.8°C 65.4°F18.6°C 87% 2.3 mph SE3.7 kmh SE 2.3 mph3.7 kmh 29.77 in1008.1 mb - 0.00 in0.0 mm 0.00 in0.0 mm
03:40 PM 69.6°F20.9°C 65.5°F18.6°C 87% 1.2 mph ENE1.9 kmh ENE 5.8 mph9.3 kmh 29.77 in1008.1 mb - 0.00 in0.0 mm 0.00 in0.0 mm
03:50 PM 69.3°F20.7°C 65.3°F18.5°C 87% 1.2 mph NE1.9 kmh NE 2.3 mph3.7 kmh 29.77 in1008.1 mb - 0.00 in0.0 mm 0.00 in0.0 mm
04:00 PM 69.2°F20.7°C 65.2°F18.4°C 87% 1.2 mph E1.9 kmh E 2.3 mph3.7 kmh 29.76 in1007.8 mb - 0.00 in0.0 mm 0.00 in0.0 mm
04:10 PM 69.7°F20.9°C 65.0°F18.3°C 85% 1.2 mph E1.9 kmh E 3.5 mph5.6 kmh 29.76 in1007.8 mb - 0.00 in0.0 mm 0.00 in0.0 mm
04:20 PM 70.1°F21.2°C 65.3°F18.5°C 85% 2.3 mph ENE3.7 kmh ENE 4.6 mph7.4 kmh 29.76 in1007.8 mb - 0.00 in0.0 mm 0.00 in0.0 mm
04:30 PM 70.1°F21.2°C 64.6°F18.1°C 83% 1.2 mph E1.9 kmh E 3.5 mph5.6 kmh 29.75 in1007.5 mb - 0.00 in0.0 mm 0.00 in0.0 mm
04:40 PM 70.2°F21.2°C 64.8°F18.2°C 83% 1.2 mph E1.9 kmh E 2.3 mph3.7 kmh 29.75 in1007.5 mb - 0.00 in0.0 mm 0.00 in0.0 mm
04:50 PM 70.5°F21.4°C 65.1°F18.4°C 83% 2.3 mph ENE3.7 kmh ENE 3.5 mph5.6 kmh 29.75 in1007.5 mb - 0.00 in0.0 mm 0.00 in0.0 mm
05:00 PM 70.6°F21.4°C 65.2°F18.4°C 83% 2.3 mph SE3.7 kmh SE 4.6 mph7.4 kmh 29.75 in1007.5 mb - 0.00 in0.0 mm 0.00 in0.0 mm
05:10 PM 71.0°F21.7°C 64.5°F18.1°C 80% 1.2 mph E1.9 kmh E 2.3 mph3.7 kmh 29.75 in1007.5 mb - 0.00 in0.0 mm 0.00 in0.0 mm
05:20 PM 71.4°F21.9°C 64.5°F18.1°C 79% 1.2 mph E1.9 kmh E 3.5 mph5.6 kmh 29.75 in1007.5 mb - 0.00 in0.0 mm 0.00 in0.0 mm
05:30 PM 71.0°F21.7°C 64.1°F17.8°C 79% 1.2 mph E1.9 kmh E 3.5 mph5.6 kmh 29.75 in1007.5 mb - 0.00 in0.0 mm 0.00 in0.0 mm
05:40 PM 70.7°F21.5°C 64.2°F17.9°C 80% 2.3 mph ENE3.7 kmh ENE 3.5 mph5.6 kmh 29.75 in1007.5 mb - 0.00 in0.0 mm 0.00 in0.0 mm
05:50 PM 70.5°F21.4°C 63.7°F17.6°C 79% 2.3 mph E3.7 kmh E 2.3 mph3.7 kmh 29.75 in1007.5 mb - 0.00 in0.0 mm 0.00 in0.0 mm
06:00 PM 70.6°F21.4°C 64.1°F17.8°C 80% 2.3 mph E3.7 kmh E 4.6 mph7.4 kmh 29.75 in1007.5 mb - 0.00 in0.0 mm 0.00 in0.0 mm
06:10 PM 70.9°F21.6°C 64.4°F18.0°C 80% 2.3 mph E3.7 kmh E 3.5 mph5.6 kmh 29.75 in1007.5 mb - 0.00 in0.0 mm 0.00 in0.0 mm
06:20 PM 71.3°F21.8°C 64.4°F18.0°C 79% 2.3 mph ENE3.7 kmh ENE 3.5 mph5.6 kmh 29.75 in1007.5 mb - 0.00 in0.0 mm 0.00 in0.0 mm
06:30 PM 71.4°F21.9°C 64.2°F17.9°C 78% 2.3 mph S3.7 kmh S 4.6 mph7.4 kmh 29.75 in1007.5 mb - 0.00 in0.0 mm 0.00 in0.0 mm
06:40 PM 71.4°F21.9°C 64.6°F18.1°C 79% 2.3 mph E3.7 kmh E 3.5 mph5.6 kmh 29.74 in1007.1 mb - 0.00 in0.0 mm 0.00 in0.0 mm
06:50 PM 71.3°F21.8°C 64.1°F17.8°C 78% 1.2 mph E1.9 kmh E 1.2 mph1.9 kmh 29.75 in1007.5 mb - 0.00 in0.0 mm 0.00 in0.0 mm
07:00 PM 71.3°F21.8°C 64.1°F17.8°C 78% 1.2 mph SE1.9 kmh SE 3.5 mph5.6 kmh 29.75 in1007.5 mb - 0.00 in0.0 mm 0.00 in0.0 mm
07:10 PM 71.3°F21.8°C 64.1°F17.8°C 78% 1.2 mph ESE1.9 kmh ESE 2.3 mph3.7 kmh 29.75 in1007.5 mb - 0.00 in0.0 mm 0.00 in0.0 mm
07:20 PM 71.2°F21.8°C 64.0°F17.8°C 78% Calm Calm 1.2 mph1.9 kmh 29.75 in1007.5 mb - 0.00 in0.0 mm 0.00 in0.0 mm
07:30 PM 71.0°F21.7°C 64.2°F17.9°C 79% Calm Calm -- 29.76 in1007.8 mb - 0.00 in0.0 mm 0.00 in0.0 mm
07:40 PM 71.0°F21.7°C 64.5°F18.1°C 80% Calm Calm 1.2 mph1.9 kmh 29.76 in1007.8 mb - 0.00 in0.0 mm 0.00 in0.0 mm
07:50 PM 70.9°F21.6°C 64.8°F18.2°C 81% Calm Calm -- 29.76 in1007.8 mb - 0.00 in0.0 mm 0.00 in0.0 mm
08:00 PM 70.7°F21.5°C 65.2°F18.4°C 83% Calm Calm -- 29.76 in1007.8 mb - 0.00 in0.0 mm 0.00 in0.0 mm
08:10 PM 70.3°F21.3°C 65.2°F18.4°C 84% Calm Calm -- 29.77 in1008.1 mb - 0.00 in0.0 mm 0.00 in0.0 mm
08:20 PM 70.1°F21.2°C 65.0°F18.3°C 84% Calm Calm -- 29.76 in1007.8 mb - 0.00 in0.0 mm 0.00 in0.0 mm
08:30 PM 69.8°F21.0°C 65.8°F18.8°C 87% Calm Calm -- 29.76 in1007.8 mb - 0.01 in0.3 mm 0.01 in0.3 mm
08:40 PM 69.1°F20.6°C 65.8°F18.8°C 89% Calm Calm -- 29.75 in1007.5 mb - 0.00 in0.0 mm 0.01 in0.3 mm
08:50 PM 68.3°F20.2°C 65.3°F18.5°C 90% Calm Calm -- 29.75 in1007.5 mb - 0.01 in0.3 mm 0.02 in0.5 mm
09:00 PM 67.7°F19.8°C 65.3°F18.5°C 92% Calm Calm -- 29.75 in1007.5 mb - 0.00 in0.0 mm 0.02 in0.5 mm
09:10 PM 67.5°F19.7°C 65.4°F18.6°C 93% Calm Calm -- 29.75 in1007.5 mb - 0.00 in0.0 mm 0.02 in0.5 mm
09:20 PM 67.2°F19.6°C 65.1°F18.4°C 93% Calm Calm -- 29.75 in1007.5 mb - 0.00 in0.0 mm 0.02 in0.5 mm
09:30 PM 67.1°F19.5°C 65.3°F18.5°C 94% Calm Calm -- 29.75 in1007.5 mb - 0.00 in0.0 mm 0.02 in0.5 mm
09:40 PM 67.1°F19.5°C 65.3°F18.5°C 94% Calm Calm -- 29.76 in1007.8 mb - 0.00 in0.0 mm 0.02 in0.5 mm
09:50 PM 66.9°F19.4°C 65.1°F18.4°C 94% Calm Calm -- 29.76 in1007.8 mb - 0.00 in0.0 mm 0.02 in0.5 mm
10:00 PM 66.0°F18.9°C 63.9°F17.7°C 93% Calm Calm -- 29.76 in1007.8 mb - 0.00 in0.0 mm 0.02 in0.5 mm
10:10 PM 65.5°F18.6°C 63.7°F17.6°C 94% Calm Calm -- 29.75 in1007.5 mb - 0.00 in0.0 mm 0.02 in0.5 mm
10:20 PM 65.4°F18.6°C 63.9°F17.7°C 95% Calm Calm -- 29.76 in1007.8 mb - 0.00 in0.0 mm 0.02 in0.5 mm
10:30 PM 65.5°F18.6°C 64.0°F17.8°C 95% Calm Calm -- 29.76 in1007.8 mb - 0.00 in0.0 mm 0.02 in0.5 mm
10:40 PM 65.8°F18.8°C 64.7°F18.2°C 96% Calm Calm 1.2 mph1.9 kmh 29.75 in1007.5 mb - 0.01 in0.3 mm 0.03 in0.8 mm
10:50 PM 65.9°F18.8°C 64.7°F18.2°C 96% Calm Calm -- 29.75 in1007.5 mb - 0.00 in0.0 mm 0.03 in0.8 mm
11:00 PM 66.0°F18.9°C 64.8°F18.2°C 96% Calm Calm -- 29.75 in1007.5 mb - 0.00 in0.0 mm 0.03 in0.8 mm
11:10 PM 65.9°F18.8°C 64.7°F18.2°C 96% Calm Calm -- 29.75 in1007.5 mb - 0.00 in0.0 mm 0.03 in0.8 mm
11:20 PM 65.9°F18.8°C 64.7°F18.2°C 96% Calm Calm -- 29.75 in1007.5 mb - 0.01 in0.3 mm 0.04 in1.0 mm
11:30 PM 65.2°F18.4°C 63.7°F17.6°C 95% 1.2 mph SE1.9 kmh SE 1.2 mph1.9 kmh 29.76 in1007.8 mb - 0.00 in0.0 mm 0.04 in1.0 mm
11:40 PM 65.5°F18.6°C 64.3°F17.9°C 96% 1.2 mph SE1.9 kmh SE 2.3 mph3.7 kmh 29.76 in1007.8 mb - 0.00 in0.0 mm 0.04 in1.0 mm
11:50 PM 66.2°F19.0°C 65.3°F18.5°C 97% 2.3 mph E3.7 kmh E 4.6 mph7.4 kmh 29.76 in1007.8 mb - 0.00 in0.0 mm 0.04 in1.0 mm